Flight Track Log - Related Links

Times and Time Zones

All times are in EDT time to prevent confusion due to time zone crossing. See the SWA1255 flight status page for this flight to view local times or setup timezone preferences in your user account.

Time Position Orientation Groundspeed Altitude Reporting Facility
EDT Latitude Longitude Course Direction KTS MPH feet Rate Location/Type
Sun 08:34:14 AM 41.8167 -87.7500 282° West 196 226 2,300  Level Chicago TRACON
Sun 08:35:05 AM 41.8089 -87.8150 261° West 209 241 3,200 911 Climbing Chicago Center
Sun 08:36:06 AM 41.7850 -87.8975 249° West 225 259 4,000 1,415 Climbing Chicago Center
Sun 08:37:08 AM 41.7603 -87.9944 251° West 266 306 6,100 2,634 Climbing Chicago Center
Sun 08:38:09 AM 41.7367 -88.0936 252° West 282 325 9,400 2,852 Climbing Chicago Center
Sun 08:39:00 AM 41.8858 -88.3910 282° West  Level FlightAware Approximate
Sun 08:39:10 AM 41.7361 -88.2044 270° West 315 362 11,900  Level Chicago Center
Sun 08:40:12 AM 41.7503 -88.3231 279° West 323 372 13,500 2,488 Climbing Chicago Center
Sun 08:41:13 AM 41.7694 -88.4828 279° West 363 418 17,000 2,656 Climbing Chicago Center
Sun 08:42:14 AM 41.7744 -88.6250 273° West 390 449 18,900 1,951 Climbing Chicago Center
Sun 08:43:16 AM 41.7408 -88.7733 253° West 418 481 21,000 1,902 Climbing Chicago Center
Sun 08:44:17 AM 41.7061 -88.9272 253° West 432 497 22,800 1,756 Climbing Chicago Center
Sun 08:45:19 AM 41.6611 -89.0867 249° West 459 528 24,600 1,659 Climbing Chicago Center
Sun 08:46:20 AM 41.6003 -89.2394 242° Southwest 467 537 26,200 1,869 Climbing Chicago Center
Sun 08:47:21 AM 41.5311 -89.4161 242° Southwest 478 550 28,400 2,049 Climbing Chicago Center
Sun 08:48:23 AM 41.4686 -89.5744 242° Southwest 483 556 30,400 2,049 Climbing Chicago Center
Sun 08:49:24 AM 41.4069 -89.7328 243° Southwest 484 557 32,600 2,098 Climbing Chicago Center
Sun 08:50:26 AM 41.3450 -89.8872 242° Southwest 478 550 34,700 1,659 Climbing Chicago Center
Sun 08:51:27 AM 41.2839 -90.0392 242° Southwest 473 544 36,000 634 Climbing Chicago Center
Sun 08:52:29 AM 41.2111 -90.2219 242° Southwest 470 541 36,000  Level Chicago Center
Sun 08:53:30 AM 41.1478 -90.3756 241° Southwest 477 549 36,000  Level Chicago Center
Sun 08:54:31 AM 41.0864 -90.5258 242° Southwest 468 539 36,000  Level Chicago Center
Sun 08:55:33 AM 41.0239 -90.6783 242° Southwest 472 543 36,000  Level Chicago Center
Sun 08:56:34 AM 40.9614 -90.8297 241° Southwest 471 542 36,000  Level Chicago Center
Sun 08:57:36 AM 40.8969 -90.9806 241° Southwest 472 543 36,000  Level Chicago Center
Sun 08:58:37 AM 40.8344 -91.1328 242° Southwest 473 544 36,000  Level Chicago Center
Sun 08:59:39 AM 40.7597 -91.3083 241° Southwest 473 544 36,000  Level Chicago Center
Sun 09:00:40 AM 40.6975 -91.4558 241° Southwest 467 537 36,000  Level Chicago Center
Sun 09:01:42 AM 40.6344 -91.6042 241° Southwest 466 536 36,000  Level Chicago Center
Sun 09:02:26 AM 40.5839 -91.7219 241° Southwest 466 536 36,000  Level Kansas City Center
Sun 09:03:30 AM 40.5203 -91.8683 240° Southwest 464 534 36,000  Level Kansas City Center
Sun 09:04:31 AM 40.4575 -92.0147 241° Southwest 463 533 36,000  Level Kansas City Center
Sun 09:05:31 AM 40.3942 -92.1617 241° Southwest 464 534 36,000  Level Kansas City Center
Sun 09:06:32 AM 40.3306 -92.3086 240° Southwest 464 534 36,000  Level Kansas City Center
Sun 09:07:33 AM 40.2650 -92.4531 239° Southwest 464 534 36,000 -390 Level Kansas City Center
Sun 09:08:35 AM 40.1933 -92.6181 240° Southwest 465 535 35,200 -1,805 Descending Kansas City Center
Sun 09:09:36 AM 40.1314 -92.7608 240° Southwest 468 539 32,300 -3,074 Descending Kansas City Center
Sun 09:10:36 AM 40.0569 -92.9281 240° Southwest 475 547 29,000 -2,800 Descending Kansas City Center
Sun 09:11:36 AM 40.0011 -93.0542 240° Southwest 472 543 26,700 -2,323 Descending Kansas City Center
Sun 09:12:40 AM 39.9386 -93.1997 241° Southwest 464 534 24,200 -2,758 Descending Kansas City Center
Sun 09:13:40 AM 39.8603 -93.3639 238° Southwest 451 519 21,000 -3,000 Descending Kansas City Center
Sun 09:14:40 AM 39.8011 -93.4997 240° Southwest 441 507 18,200 -2,628 Descending Kansas City Center
Sun 09:15:41 AM 39.7411 -93.6333 240° Southwest 434 499 15,700 -2,256 Descending Kansas City Center
Sun 09:16:45 AM 39.6794 -93.7639 238° Southwest 409 471 13,500 -1,854 Descending Kansas City Center
Sun 09:17:44 AM 39.6314 -93.8797 242° Southwest 380 437 11,900 -1,289 Descending Kansas City Center
Sun 09:18:46 AM 39.5936 -94.0114 250° West 344 396 10,900 -1,033 Descending Kansas City Center
Sun 09:19:46 AM 39.5628 -94.1106 248° West 311 358 9,800 -1,279 Descending Kansas City Center
Sun 09:20:48 AM 39.5331 -94.2081 248° West 304 350 8,300 -1,512 Descending Kansas City Center
Sun 09:21:49 AM 39.4983 -94.3183 248° West 296 341 6,700 -1,388 Descending Kansas City Center
Sun 09:22:49 AM 39.4703 -94.4094 248° West 286 329 5,500 -942 Descending Kansas City Center
Sun 09:23:50 AM 39.4433 -94.4950 248° West 270 311 4,800 -726 Descending Kansas City Center
Sun 09:24:53 AM 39.4164 -94.5800 248° West 228 262 4,000 -787 Descending Kansas City Center
Sun 09:25:52 AM 39.3961 -94.6386 246° West 190 219 3,200 -927 Descending Kansas City Center
Sun 09:26:56 AM 39.3706 -94.6833 234° Southwest 140 161 2,100 -720 Descending Kansas City Center
Sun 09:27:57 AM 39.3406 -94.6917 192° South 114 131 1,700 -541 Descending Kansas City Center
Sun 09:28:58 AM 39.3064 -94.7014 192° South 128 147 1,000 -689 Descending Kansas City Center

Login

Don't have an account? Register now (free) for customized features, flight alerts, and more!